sensor_id;sensor_type;location;lat;lon;timestamp;pressure;altitude;pressure_sealevel;temperature
76541;BMP280;65385;55.772;37.658;2023-02-02T00:00:34;98711.25;;;0.03
76541;BMP280;65385;55.772;37.658;2023-02-02T00:01:35;98706.91;;;0.04
76541;BMP280;65385;55.772;37.658;2023-02-02T00:02:35;98712.25;;;0.02
76541;BMP280;65385;55.772;37.658;2023-02-02T00:03:36;98709.69;;;0.02
76541;BMP280;65385;55.772;37.658;2023-02-02T00:04:37;98717.19;;;0.04
76541;BMP280;65385;55.772;37.658;2023-02-02T00:05:38;98717.38;;;0.02
76541;BMP280;65385;55.772;37.658;2023-02-02T00:06:38;98714.25;;;0.00
76541;BMP280;65385;55.772;37.658;2023-02-02T00:07:39;98712.25;;;0.02
76541;BMP280;65385;55.772;37.658;2023-02-02T00:08:39;98709.69;;;0.02
76541;BMP280;65385;55.772;37.658;2023-02-02T00:09:40;98714.81;;;0.02
76541;BMP280;65385;55.772;37.658;2023-02-02T00:10:41;98717.97;;;0.04
76541;BMP280;65385;55.772;37.658;2023-02-02T00:11:42;98703.75;;;0.02
76541;BMP280;65385;55.772;37.658;2023-02-02T00:12:43;98711.69;;;0.00
76541;BMP280;65385;55.772;37.658;2023-02-02T00:13:44;98715.25;;;-0.01
76541;BMP280;65385;55.772;37.658;2023-02-02T00:14:44;98717.03;;;-0.02
76541;BMP280;65385;55.772;37.658;2023-02-02T00:15:45;98710.31;;;-0.03
76541;BMP280;65385;55.772;37.658;2023-02-02T00:16:55;98713.69;;;-0.02
76541;BMP280;65385;55.772;37.658;2023-02-02T00:17:56;98716.25;;;-0.02
76541;BMP280;65385;55.772;37.658;2023-02-02T00:18:59;98708.34;;;-0.01
76541;BMP280;65385;55.772;37.658;2023-02-02T00:19:59;98701.81;;;-0.03
76541;BMP280;65385;55.772;37.658;2023-02-02T00:21:00;98706.38;;;-0.05
76541;BMP280;65385;55.772;37.658;2023-02-02T00:22:01;98703.81;;;-0.05
76541;BMP280;65385;55.772;37.658;2023-02-02T00:23:02;98708.94;;;-0.05
76541;BMP280;65385;55.772;37.658;2023-02-02T00:24:05;98704.41;;;-0.03
76541;BMP280;65385;55.772;37.658;2023-02-02T00:25:07;98704.41;;;-0.03
76541;BMP280;65385;55.772;37.658;2023-02-02T00:26:08;98706.16;;;-0.04
76541;BMP280;65385;55.772;37.658;2023-02-02T00:27:08;98706.16;;;-0.04
76541;BMP280;65385;55.772;37.658;2023-02-02T00:28:09;98697.69;;;-0.04
76541;BMP280;65385;55.772;37.658;2023-02-02T00:29:15;98703.81;;;-0.05
76541;BMP280;65385;55.772;37.658;2023-02-02T00:30:16;98702.22;;;-0.06
76541;BMP280;65385;55.772;37.658;2023-02-02T00:31:16;98707.38;;;-0.06
76541;BMP280;65385;55.772;37.658;2023-02-02T00:32:17;98713.28;;;-0.06
76541;BMP280;65385;55.772;37.658;2023-02-02T00:33:17;98707.38;;;-0.06
76541;BMP280;65385;55.772;37.658;2023-02-02T00:34:18;98702.22;;;-0.06
76541;BMP280;65385;55.772;37.658;2023-02-02T00:35:20;98704.78;;;-0.06
76541;BMP280;65385;55.772;37.658;2023-02-02T00:36:21;98705.03;;;-0.08
76541;BMP280;65385;55.772;37.658;2023-02-02T00:37:21;98705.78;;;-0.07
76541;BMP280;65385;55.772;37.658;2023-02-02T00:38:22;98701.66;;;-0.08
76541;BMP280;65385;55.772;37.658;2023-02-02T00:39:24;98705.78;;;-0.07
76541;BMP280;65385;55.772;37.658;2023-02-02T00:40:25;98701.44;;;-0.07
76541;BMP280;65385;55.772;37.658;2023-02-02T00:41:25;98703.81;;;-0.05
76541;BMP280;65385;55.772;37.658;2023-02-02T00:42:26;98703.22;;;-0.07
76541;BMP280;65385;55.772;37.658;2023-02-02T00:43:26;98708.16;;;-0.06
76541;BMP280;65385;55.772;37.658;2023-02-02T00:44:27;98703.22;;;-0.07
76541;BMP280;65385;55.772;37.658;2023-02-02T00:45:47;98710.94;;;-0.07
76541;BMP280;65385;55.772;37.658;2023-02-02T00:46:48;98707.81;;;-0.09
76541;BMP280;65385;55.772;37.658;2023-02-02T00:47:48;98712.94;;;-0.09
76541;BMP280;65385;55.772;37.658;2023-02-02T00:48:50;98707.00;;;-0.10
76541;BMP280;65385;55.772;37.658;2023-02-02T00:49:51;98705.44;;;-0.11
76541;BMP280;65385;55.772;37.658;2023-02-02T00:50:52;98708.78;;;-0.10
76541;BMP280;65385;55.772;37.658;2023-02-02T00:51:52;98694.38;;;-0.11
76541;BMP280;65385;55.772;37.658;2023-02-02T00:52:53;98697.94;;;-0.12
76541;BMP280;65385;55.772;37.658;2023-02-02T00:53:53;98700.69;;;-0.14
76541;BMP280;65385;55.772;37.658;2023-02-02T00:54:54;98707.06;;;-0.16
76541;BMP280;65385;55.772;37.658;2023-02-02T00:55:55;98699.34;;;-0.16
76541;BMP280;65385;55.772;37.658;2023-02-02T00:56:55;98705.47;;;-0.17
76541;BMP280;65385;55.772;37.658;2023-02-02T00:57:56;98710.63;;;-0.17
76541;BMP280;65385;55.772;37.658;2023-02-02T00:58:56;98703.13;;;-0.19
76541;BMP280;65385;55.772;37.658;2023-02-02T00:59:57;98709.03;;;-0.18
76541;BMP280;65385;55.772;37.658;2023-02-02T01:00:58;98703.91;;;-0.18
76541;BMP280;65385;55.772;37.658;2023-02-02T01:01:58;98705.47;;;-0.17
76541;BMP280;65385;55.772;37.658;2023-02-02T01:02:59;98702.91;;;-0.17
76541;BMP280;65385;55.772;37.658;2023-02-02T01:04:03;98705.47;;;-0.17
76541;BMP280;65385;55.772;37.658;2023-02-02T01:05:04;98702.91;;;-0.17
76541;BMP280;65385;55.772;37.658;2023-02-02T01:06:06;98704.50;;;-0.16
76541;BMP280;65385;55.772;37.658;2023-02-02T01:07:07;98705.47;;;-0.17
76541;BMP280;65385;55.772;37.658;2023-02-02T01:08:07;98707.06;;;-0.16
76541;BMP280;65385;55.772;37.658;2023-02-02T01:09:08;98705.28;;;-0.16
76541;BMP280;65385;55.772;37.658;2023-02-02T01:10:14;98697.78;;;-0.17
76541;BMP280;65385;55.772;37.658;2023-02-02T01:11:16;98703.91;;;-0.18
76541;BMP280;65385;55.772;37.658;2023-02-02T01:12:17;98699.56;;;-0.18
76541;BMP280;65385;55.772;37.658;2023-02-02T01:13:18;98705.47;;;-0.17
76541;BMP280;65385;55.772;37.658;2023-02-02T01:14:18;98696.78;;;-0.16
76541;BMP280;65385;55.772;37.658;2023-02-02T01:15:19;98701.13;;;-0.17
76541;BMP280;65385;55.772;37.658;2023-02-02T01:16:19;98700.34;;;-0.17
76541;BMP280;65385;55.772;37.658;2023-02-02T01:17:21;98701.53;;;-0.20
76541;BMP280;65385;55.772;37.658;2023-02-02T01:18:22;98700.75;;;-0.20
76541;BMP280;65385;55.772;37.658;2023-02-02T01:19:24;98691.47;;;-0.21
76541;BMP280;65385;55.772;37.658;2023-02-02T01:20:25;98695.63;;;-0.20
76541;BMP280;65385;55.772;37.658;2023-02-02T01:21:26;98696.59;;;-0.21
76541;BMP280;65385;55.772;37.658;2023-02-02T01:22:26;98694.81;;;-0.21
76541;BMP280;65385;55.772;37.658;2023-02-02T01:23:27;98697.63;;;-0.22
76541;BMP280;65385;55.772;37.658;2023-02-02T01:24:28;98696.84;;;-0.23
76541;BMP280;65385;55.772;37.658;2023-02-02T01:25:29;98699.16;;;-0.21
76541;BMP280;65385;55.772;37.658;2023-02-02T01:26:31;98698.38;;;-0.22
76541;BMP280;65385;55.772;37.658;2023-02-02T01:27:32;98686.56;;;-0.23
76541;BMP280;65385;55.772;37.658;2023-02-02T01:28:33;98690.13;;;-0.24
76541;BMP280;65385;55.772;37.658;2023-02-02T01:29:33;98696.03;;;-0.23
76541;BMP280;65385;55.772;37.658;2023-02-02T01:30:34;98692.88;;;-0.25
76541;BMP280;65385;55.772;37.658;2023-02-02T01:31:34;98689.13;;;-0.23
76541;BMP280;65385;55.772;37.658;2023-02-02T01:32:35;98686.56;;;-0.23
76541;BMP280;65385;55.772;37.658;2023-02-02T01:33:35;98692.47;;;-0.22
76541;BMP280;65385;55.772;37.658;2023-02-02T01:34:37;98692.47;;;-0.22
76541;BMP280;65385;55.772;37.658;2023-02-02T01:35:49;98686.31;;;-0.21
76541;BMP280;65385;55.772;37.658;2023-02-02T01:36:50;98690.69;;;-0.22
76541;BMP280;65385;55.772;37.658;2023-02-02T01:37:50;98686.56;;;-0.23
76541;BMP280;65385;55.772;37.658;2023-02-02T01:38:51;98688.91;;;-0.21
76541;BMP280;65385;55.772;37.658;2023-02-02T01:39:51;98689.69;;;-0.21
76541;BMP280;65385;55.772;37.658;2023-02-02T01:40:54;98684.56;;;-0.21
76541;BMP280;65385;55.772;37.658;2023-02-02T01:41:55;98692.06;;;-0.19
76541;BMP280;65385;55.772;37.658;2023-02-02T01:42:55;98687.69;;;-0.19
76541;BMP280;65385;55.772;37.658;2023-02-02T01:44:01;98688.50;;;-0.18
76541;BMP280;65385;55.772;37.658;2023-02-02T01:46:15;98691.06;;;-0.18
76541;BMP280;65385;55.772;37.658;2023-02-02T01:47:17;98679.78;;;-0.17
76541;BMP280;65385;55.772;37.658;2023-02-02T01:48:21;98695.00;;;-0.16
76541;BMP280;65385;55.772;37.658;2023-02-02T01:49:23;98686.50;;;-0.16
76541;BMP280;65385;55.772;37.658;2023-02-02T01:50:28;98679.59;;;-0.16
76541;BMP280;65385;55.772;37.658;2023-02-02T01:51:35;98685.53;;;-0.15
76541;BMP280;65385;55.772;37.658;2023-02-02T01:52:39;98678.22;;;-0.18
76541;BMP280;65385;55.772;37.658;2023-02-02T01:53:41;98684.16;;;-0.18
76541;BMP280;65385;55.772;37.658;2023-02-02T01:54:50;98678.22;;;-0.18
76541;BMP280;65385;55.772;37.658;2023-02-02T01:55:51;98682.78;;;-0.20
76541;BMP280;65385;55.772;37.658;2023-02-02T01:56:57;98676.66;;;-0.19
76541;BMP280;65385;55.772;37.658;2023-02-02T01:58:09;98681.78;;;-0.19
76541;BMP280;65385;55.772;37.658;2023-02-02T01:59:13;98685.34;;;-0.20
76541;BMP280;65385;55.772;37.658;2023-02-02T02:00:15;98682.78;;;-0.20
76541;BMP280;65385;55.772;37.658;2023-02-02T02:01:17;98681.00;;;-0.20
76541;BMP280;65385;55.772;37.658;2023-02-02T02:02:18;98681.19;;;-0.21
76541;BMP280;65385;55.772;37.658;2023-02-02T02:03:22;98682.22;;;-0.22
76541;BMP280;65385;55.772;37.658;2023-02-02T02:04:25;98687.34;;;-0.22
76541;BMP280;65385;55.772;37.658;2023-02-02T02:05:29;98687.34;;;-0.22
76541;BMP280;65385;55.772;37.658;2023-02-02T02:06:30;98683.19;;;-0.23
76541;BMP280;65385;55.772;37.658;2023-02-02T02:07:31;98685.78;;;-0.23
76541;BMP280;65385;55.772;37.658;2023-02-02T02:08:39;98685.78;;;-0.23
76541;BMP280;65385;55.772;37.658;2023-02-02T02:09:40;98689.34;;;-0.24
76541;BMP280;65385;55.772;37.658;2023-02-02T02:10:41;98698.81;;;-0.25
76541;BMP280;65385;55.772;37.658;2023-02-02T02:11:42;98694.09;;;-0.28
76541;BMP280;65385;55.772;37.658;2023-02-02T02:12:42;98691.31;;;-0.26
76541;BMP280;65385;55.772;37.658;2023-02-02T02:13:43;98697.44;;;-0.27
76541;BMP280;65385;55.772;37.658;2023-02-02T02:15:03;98698.66;;;-0.30
76541;BMP280;65385;55.772;37.658;2023-02-02T02:16:35;98699.44;;;-0.29
76541;BMP280;65385;55.772;37.658;2023-02-02T02:20:28;98693.72;;;-0.31
76541;BMP280;65385;55.772;37.658;2023-02-02T02:22:04;98693.31;;;-0.35
76541;BMP280;65385;55.772;37.658;2023-02-02T02:27:19;98702.22;;;-0.38
76541;BMP280;65385;55.772;37.658;2023-02-02T02:28:33;98698.06;;;-0.39
76541;BMP280;65385;55.772;37.658;2023-02-02T02:33:50;98698.88;;;-0.38
76541;BMP280;65385;55.772;37.658;2023-02-02T02:36:11;98693.34;;;-0.42
76541;BMP280;65385;55.772;37.658;2023-02-02T02:38:48;98692.00;;;-0.44
76541;BMP280;65385;55.772;37.658;2023-02-02T02:40:12;98696.34;;;-0.45
76541;BMP280;65385;55.772;37.658;2023-02-02T02:41:20;98704.44;;;-0.48
76541;BMP280;65385;55.772;37.658;2023-02-02T02:42:25;98695.75;;;-0.47
76541;BMP280;65385;55.772;37.658;2023-02-02T02:43:40;98698.31;;;-0.47
76541;BMP280;65385;55.772;37.658;2023-02-02T02:44:42;98696.94;;;-0.49
76541;BMP280;65385;55.772;37.658;2023-02-02T02:45:43;98709.56;;;-0.48
76541;BMP280;65385;55.772;37.658;2023-02-02T02:46:46;98703.66;;;-0.48
76541;BMP280;65385;55.772;37.658;2023-02-02T02:47:47;98707.81;;;-0.47
76541;BMP280;65385;55.772;37.658;2023-02-02T02:48:48;98708.78;;;-0.48
76541;BMP280;65385;55.772;37.658;2023-02-02T02:49:49;98708.59;;;-0.47
76541;BMP280;65385;55.772;37.658;2023-02-02T02:50:50;98709.56;;;-0.48
76541;BMP280;65385;55.772;37.658;2023-02-02T02:51:53;98710.56;;;-0.49
76541;BMP280;65385;55.772;37.658;2023-02-02T02:53:04;98709.56;;;-0.48
76541;BMP280;65385;55.772;37.658;2023-02-02T02:54:05;98708.00;;;-0.49
76541;BMP280;65385;55.772;37.658;2023-02-02T02:55:08;98704.66;;;-0.49
76541;BMP280;65385;55.772;37.658;2023-02-02T02:56:18;98702.88;;;-0.49
76541;BMP280;65385;55.772;37.658;2023-02-02T02:58:07;98710.56;;;-0.49
76541;BMP280;65385;55.772;37.658;2023-02-02T02:59:11;98703.06;;;-0.50
76541;BMP280;65385;55.772;37.658;2023-02-02T03:04:37;98704.28;;;-0.53
76541;BMP280;65385;55.772;37.658;2023-02-02T03:05:55;98704.09;;;-0.51
76541;BMP280;65385;55.772;37.658;2023-02-02T03:07:09;98703.84;;;-0.50
76541;BMP280;65385;55.772;37.658;2023-02-02T03:08:20;98697.72;;;-0.49
76541;BMP280;65385;55.772;37.658;2023-02-02T03:09:30;98703.84;;;-0.50
76541;BMP280;65385;55.772;37.658;2023-02-02T03:10:34;98704.84;;;-0.51
76541;BMP280;65385;55.772;37.658;2023-02-02T03:11:36;98701.28;;;-0.50
76541;BMP280;65385;55.772;37.658;2023-02-02T03:12:47;98701.28;;;-0.50
76541;BMP280;65385;55.772;37.658;2023-02-02T03:13:48;98701.28;;;-0.50
76541;BMP280;65385;55.772;37.658;2023-02-02T03:14:49;98701.28;;;-0.50
76541;BMP280;65385;55.772;37.658;2023-02-02T03:15:49;98704.84;;;-0.51
76541;BMP280;65385;55.772;37.658;2023-02-02T03:16:51;98703.06;;;-0.50
76541;BMP280;65385;55.772;37.658;2023-02-02T03:17:52;98708.00;;;-0.49
76541;BMP280;65385;55.772;37.658;2023-02-02T03:18:54;98700.31;;;-0.49
76541;BMP280;65385;55.772;37.658;2023-02-02T03:19:56;98703.84;;;-0.50
76541;BMP280;65385;55.772;37.658;2023-02-02T03:20:56;98705.44;;;-0.49
76541;BMP280;65385;55.772;37.658;2023-02-02T03:21:57;98706.03;;;-0.47
76541;BMP280;65385;55.772;37.658;2023-02-02T03:22:57;98700.88;;;-0.47
76541;BMP280;65385;55.772;37.658;2023-02-02T03:23:58;98710.38;;;-0.47
76541;BMP280;65385;55.772;37.658;2023-02-02T03:24:59;98709.19;;;-0.45
76541;BMP280;65385;55.772;37.658;2023-02-02T03:26:00;98708.78;;;-0.48
76541;BMP280;65385;55.772;37.658;2023-02-02T03:27:00;98719.84;;;-0.48
76541;BMP280;65385;55.772;37.658;2023-02-02T03:28:01;98708.19;;;-0.50
76541;BMP280;65385;55.772;37.658;2023-02-02T03:29:02;98713.91;;;-0.48
76541;BMP280;65385;55.772;37.658;2023-02-02T03:30:04;98712.16;;;-0.48
76541;BMP280;65385;55.772;37.658;2023-02-02T03:31:06;98711.34;;;-0.48
76541;BMP280;65385;55.772;37.658;2023-02-02T03:32:06;98708.00;;;-0.49
76541;BMP280;65385;55.772;37.658;2023-02-02T03:33:08;98709.78;;;-0.49
76541;BMP280;65385;55.772;37.658;2023-02-02T03:34:09;98715.69;;;-0.49
76541;BMP280;65385;55.772;37.658;2023-02-02T03:35:09;98711.00;;;-0.52
76541;BMP280;65385;55.772;37.658;2023-02-02T03:36:10;98716.69;;;-0.50
76541;BMP280;65385;55.772;37.658;2023-02-02T03:37:10;98726.97;;;-0.50
76541;BMP280;65385;55.772;37.658;2023-02-02T03:38:11;98719.06;;;-0.48
76541;BMP280;65385;55.772;37.658;2023-02-02T03:39:12;98719.06;;;-0.48
76541;BMP280;65385;55.772;37.658;2023-02-02T03:40:12;98724.00;;;-0.47
76541;BMP280;65385;55.772;37.658;2023-02-02T03:41:13;98716.50;;;-0.48
76541;BMP280;65385;55.772;37.658;2023-02-02T03:42:14;98716.50;;;-0.48
76541;BMP280;65385;55.772;37.658;2023-02-02T03:43:22;98718.28;;;-0.49
76541;BMP280;65385;55.772;37.658;2023-02-02T03:44:22;98728.53;;;-0.49
76541;BMP280;65385;55.772;37.658;2023-02-02T03:45:26;98727.75;;;-0.49
76541;BMP280;65385;55.772;37.658;2023-02-02T03:46:27;98727.75;;;-0.49
76541;BMP280;65385;55.772;37.658;2023-02-02T03:47:28;98722.59;;;-0.49
76541;BMP280;65385;55.772;37.658;2023-02-02T03:48:29;98714.72;;;-0.48
76541;BMP280;65385;55.772;37.658;2023-02-02T03:49:30;98718.28;;;-0.49
76541;BMP280;65385;55.772;37.658;2023-02-02T03:50:32;98723.00;;;-0.46
76541;BMP280;65385;55.772;37.658;2023-02-02T03:51:33;98719.06;;;-0.48
76541;BMP280;65385;55.772;37.658;2023-02-02T03:52:33;98722.59;;;-0.49
76541;BMP280;65385;55.772;37.658;2023-02-02T03:53:34;98715.91;;;-0.50
76541;BMP280;65385;55.772;37.658;2023-02-02T03:54:34;98722.81;;;-0.51
76541;BMP280;65385;55.772;37.658;2023-02-02T03:55:35;98722.81;;;-0.51
76541;BMP280;65385;55.772;37.658;2023-02-02T03:56:37;98723.59;;;-0.50
76541;BMP280;65385;55.772;37.658;2023-02-02T03:57:38;98726.41;;;-0.52
76541;BMP280;65385;55.772;37.658;2023-02-02T03:58:38;98727.19;;;-0.51
76541;BMP280;65385;55.772;37.658;2023-02-02T03:59:39;98736.44;;;-0.50
76541;BMP280;65385;55.772;37.658;2023-02-02T04:00:40;98733.66;;;-0.49
76541;BMP280;65385;55.772;37.658;2023-02-02T04:01:40;98726.97;;;-0.50
76541;BMP280;65385;55.772;37.658;2023-02-02T04:02:41;98729.31;;;-0.48
76541;BMP280;65385;55.772;37.658;2023-02-02T04:03:41;98729.13;;;-0.47
76541;BMP280;65385;55.772;37.658;2023-02-02T04:04:42;98726.56;;;-0.47
76541;BMP280;65385;55.772;37.658;2023-02-02T04:05:42;98722.00;;;-0.45
76541;BMP280;65385;55.772;37.658;2023-02-02T04:06:43;98722.22;;;-0.46
76541;BMP280;65385;55.772;37.658;2023-02-02T04:07:43;98724.59;;;-0.45
76541;BMP280;65385;55.772;37.658;2023-02-02T04:08:44;98727.94;;;-0.44
76541;BMP280;65385;55.772;37.658;2023-02-02T04:09:44;98722.00;;;-0.45
76541;BMP280;65385;55.772;37.658;2023-02-02T04:10:45;98727.72;;;-0.43
76541;BMP280;65385;55.772;37.658;2023-02-02T04:11:45;98721.78;;;-0.43
76541;BMP280;65385;55.772;37.658;2023-02-02T04:12:46;98726.72;;;-0.42
76541;BMP280;65385;55.772;37.658;2023-02-02T04:13:46;98727.72;;;-0.43
76541;BMP280;65385;55.772;37.658;2023-02-02T04:14:47;98724.16;;;-0.42
76541;BMP280;65385;55.772;37.658;2023-02-02T04:15:55;98726.13;;;-0.44
76541;BMP280;65385;55.772;37.658;2023-02-02T04:16:56;98734.06;;;-0.45
76541;BMP280;65385;55.772;37.658;2023-02-02T04:17:56;98731.50;;;-0.45
76541;BMP280;65385;55.772;37.658;2023-02-02T04:18:57;98726.34;;;-0.45
76541;BMP280;65385;55.772;37.658;2023-02-02T04:19:57;98724.59;;;-0.45
76541;BMP280;65385;55.772;37.658;2023-02-02T04:20:59;98729.72;;;-0.45
76541;BMP280;65385;55.772;37.658;2023-02-02T04:22:00;98717.88;;;-0.46
76541;BMP280;65385;55.772;37.658;2023-02-02T04:23:00;98713.91;;;-0.48
76541;BMP280;65385;55.772;37.658;2023-02-02T04:24:00;98715.50;;;-0.47
76541;BMP280;65385;55.772;37.658;2023-02-02T04:25:01;98731.69;;;-0.47
76541;BMP280;65385;55.772;37.658;2023-02-02T04:26:02;98721.44;;;-0.47
76541;BMP280;65385;55.772;37.658;2023-02-02T04:27:03;98724.19;;;-0.48
76541;BMP280;65385;55.772;37.658;2023-02-02T04:28:03;98717.47;;;-0.49
76541;BMP280;65385;55.772;37.658;2023-02-02T04:29:04;98721.81;;;-0.50
76541;BMP280;65385;55.772;37.658;2023-02-02T04:30:05;98726.97;;;-0.50
76541;BMP280;65385;55.772;37.658;2023-02-02T04:31:05;98728.53;;;-0.49
76541;BMP280;65385;55.772;37.658;2023-02-02T04:32:06;98720.84;;;-0.49
76541;BMP280;65385;55.772;37.658;2023-02-02T04:33:06;98730.13;;;-0.48
76541;BMP280;65385;55.772;37.658;2023-02-02T04:34:07;98735.03;;;-0.46
76541;BMP280;65385;55.772;37.658;2023-02-02T04:35:07;98727.56;;;-0.48
76541;BMP280;65385;55.772;37.658;2023-02-02T04:36:08;98724.59;;;-0.45
76541;BMP280;65385;55.772;37.658;2023-02-02T04:37:10;98726.13;;;-0.44
76541;BMP280;65385;55.772;37.658;2023-02-02T04:38:11;98723.78;;;-0.45
76541;BMP280;65385;55.772;37.658;2023-02-02T04:39:12;98732.84;;;-0.43
76541;BMP280;65385;55.772;37.658;2023-02-02T04:40:13;98735.00;;;-0.40
76541;BMP280;65385;55.772;37.658;2023-02-02T04:41:14;98730.06;;;-0.41
76541;BMP280;65385;55.772;37.658;2023-02-02T04:42:14;98741.34;;;-0.42
76541;BMP280;65385;55.772;37.658;2023-02-02T04:43:15;98735.84;;;-0.46
76541;BMP280;65385;55.772;37.658;2023-02-02T04:44:15;98739.19;;;-0.45
76541;BMP280;65385;55.772;37.658;2023-02-02T04:45:16;98741.16;;;-0.47
76541;BMP280;65385;55.772;37.658;2023-02-02T04:46:17;98743.75;;;-0.47
76541;BMP280;65385;55.772;37.658;2023-02-02T04:47:17;98737.81;;;-0.48
76541;BMP280;65385;55.772;37.658;2023-02-02T04:48:18;98734.09;;;-0.52
76541;BMP280;65385;55.772;37.658;2023-02-02T04:49:18;98742.34;;;-0.50
76541;BMP280;65385;55.772;37.658;2023-02-02T04:50:19;98744.94;;;-0.50
76541;BMP280;65385;55.772;37.658;2023-02-02T04:51:19;98750.06;;;-0.50
76541;BMP280;65385;55.772;37.658;2023-02-02T04:52:20;98747.50;;;-0.50
76541;BMP280;65385;55.772;37.658;2023-02-02T04:53:21;98731.31;;;-0.50
76541;BMP280;65385;55.772;37.658;2023-02-02T04:54:21;98739.22;;;-0.52
76541;BMP280;65385;55.772;37.658;2023-02-02T04:55:22;98739.59;;;-0.48
76541;BMP280;65385;55.772;37.658;2023-02-02T04:56:23;98743.16;;;-0.49
76541;BMP280;65385;55.772;37.658;2023-02-02T04:57:24;98750.44;;;-0.46
76541;BMP280;65385;55.772;37.658;2023-02-02T04:58:24;98750.25;;;-0.45
76541;BMP280;65385;55.772;37.658;2023-02-02T04:59:27;98745.13;;;-0.45
76541;BMP280;65385;55.772;37.658;2023-02-02T05:00:29;98744.31;;;-0.45
76541;BMP280;65385;55.772;37.658;2023-02-02T05:01:29;98748.69;;;-0.46
76541;BMP280;65385;55.772;37.658;2023-02-02T05:02:30;98744.31;;;-0.45
76541;BMP280;65385;55.772;37.658;2023-02-02T05:03:30;98747.69;;;-0.45
76541;BMP280;65385;55.772;37.658;2023-02-02T05:04:31;98760.72;;;-0.46
76541;BMP280;65385;55.772;37.658;2023-02-02T05:05:31;98746.50;;;-0.49
76541;BMP280;65385;55.772;37.658;2023-02-02T05:06:32;98752.63;;;-0.50
76541;BMP280;65385;55.772;37.658;2023-02-02T05:07:32;98748.47;;;-0.51
76541;BMP280;65385;55.772;37.658;2023-02-02T05:08:34;98745.16;;;-0.51
76541;BMP280;65385;55.772;37.658;2023-02-02T05:09:34;98747.13;;;-0.53
76541;BMP280;65385;55.772;37.658;2023-02-02T05:10:38;98754.03;;;-0.54
76541;BMP280;65385;55.772;37.658;2023-02-02T05:11:39;98747.53;;;-0.56
76541;BMP280;65385;55.772;37.658;2023-02-02T05:12:40;98757.59;;;-0.55
76541;BMP280;65385;55.772;37.658;2023-02-02T05:13:44;98752.84;;;-0.58
76541;BMP280;65385;55.772;37.658;2023-02-02T05:14:46;98750.50;;;-0.59
76541;BMP280;65385;55.772;37.658;2023-02-02T05:15:47;98752.50;;;-0.61
76541;BMP280;65385;55.772;37.658;2023-02-02T05:16:48;98757.44;;;-0.60
76541;BMP280;65385;55.772;37.658;2023-02-02T05:17:49;98760.97;;;-0.61
76541;BMP280;65385;55.772;37.658;2023-02-02T05:18:54;98758.41;;;-0.61
76541;BMP280;65385;55.772;37.658;2023-02-02T05:19:55;98760.97;;;-0.61
76541;BMP280;65385;55.772;37.658;2023-02-02T05:21:00;98757.03;;;-0.63
76541;BMP280;65385;55.772;37.658;2023-02-02T05:22:01;98759.78;;;-0.65
76541;BMP280;65385;55.772;37.658;2023-02-02T05:23:01;98757.81;;;-0.63
76541;BMP280;65385;55.772;37.658;2023-02-02T05:24:02;98758.03;;;-0.64
76541;BMP280;65385;55.772;37.658;2023-02-02T05:25:04;98759.78;;;-0.65
76541;BMP280;65385;55.772;37.658;2023-02-02T05:26:05;98755.69;;;-0.66
76541;BMP280;65385;55.772;37.658;2023-02-02T05:27:06;98750.53;;;-0.66
76541;BMP280;65385;55.772;37.658;2023-02-02T05:28:06;98760.03;;;-0.66
76541;BMP280;65385;55.772;37.658;2023-02-02T05:29:07;98752.53;;;-0.68
76541;BMP280;65385;55.772;37.658;2023-02-02T05:30:11;98753.31;;;-0.67
76541;BMP280;65385;55.772;37.658;2023-02-02T05:31:11;98757.47;;;-0.66
76541;BMP280;65385;55.772;37.658;2023-02-02T05:32:12;98760.59;;;-0.64
76541;BMP280;65385;55.772;37.658;2023-02-02T05:33:13;98767.31;;;-0.63
76541;BMP280;65385;55.772;37.658;2023-02-02T05:34:14;98762.16;;;-0.63
76541;BMP280;65385;55.772;37.658;2023-02-02T05:35:15;98756.03;;;-0.62
76541;BMP280;65385;55.772;37.658;2023-02-02T05:36:15;98759.59;;;-0.63
76541;BMP280;65385;55.772;37.658;2023-02-02T05:37:16;98760.59;;;-0.64
76541;BMP280;65385;55.772;37.658;2023-02-02T05:38:16;98756.25;;;-0.64
76541;BMP280;65385;55.772;37.658;2023-02-02T05:39:17;98757.81;;;-0.63
76541;BMP280;65385;55.772;37.658;2023-02-02T05:40:17;98768.09;;;-0.63
76541;BMP280;65385;55.772;37.658;2023-02-02T05:41:18;98764.72;;;-0.63
76541;BMP280;65385;55.772;37.658;2023-02-02T05:42:19;98763.16;;;-0.64
76541;BMP280;65385;55.772;37.658;2023-02-02T05:43:19;98760.81;;;-0.66
76541;BMP280;65385;55.772;37.658;2023-02-02T05:44:20;98760.59;;;-0.64
76541;BMP280;65385;55.772;37.658;2023-02-02T05:45:21;98770.06;;;-0.65
76541;BMP280;65385;55.772;37.658;2023-02-02T05:46:22;98764.13;;;-0.65
76541;BMP280;65385;55.772;37.658;2023-02-02T05:47:22;98762.34;;;-0.65
76541;BMP280;65385;55.772;37.658;2023-02-02T05:48:24;98759.00;;;-0.65
76541;BMP280;65385;55.772;37.658;2023-02-02T05:49:25;98759.78;;;-0.65
76541;BMP280;65385;55.772;37.658;2023-02-02T05:50:25;98757.03;;;-0.63
76541;BMP280;65385;55.772;37.658;2023-02-02T05:51:41;98761.97;;;-0.62
76541;BMP280;65385;55.772;37.658;2023-02-02T05:52:43;98758.81;;;-0.64
76541;BMP280;65385;55.772;37.658;2023-02-02T05:53:45;98767.09;;;-0.62
76541;BMP280;65385;55.772;37.658;2023-02-02T05:54:46;98767.88;;;-0.61
76541;BMP280;65385;55.772;37.658;2023-02-02T05:55:46;98767.47;;;-0.58
76541;BMP280;65385;55.772;37.658;2023-02-02T05:56:48;98768.06;;;-0.56
76541;BMP280;65385;55.772;37.658;2023-02-02T05:57:49;98769.28;;;-0.59
76541;BMP280;65385;55.772;37.658;2023-02-02T05:58:49;98770.25;;;-0.60
76541;BMP280;65385;55.772;37.658;2023-02-02T05:59:50;98772.22;;;-0.62
76541;BMP280;65385;55.772;37.658;2023-02-02T06:00:50;98776.19;;;-0.59
76541;BMP280;65385;55.772;37.658;2023-02-02T06:01:51;98781.31;;;-0.59
76541;BMP280;65385;55.772;37.658;2023-02-02T06:02:52;98776.19;;;-0.59
76541;BMP280;65385;55.772;37.658;2023-02-02T06:03:52;98777.97;;;-0.60
76541;BMP280;65385;55.772;37.658;2023-02-02T06:04:53;98781.09;;;-0.58
76541;BMP280;65385;55.772;37.658;2023-02-02T06:05:53;98780.09;;;-0.57
76541;BMP280;65385;55.772;37.658;2023-02-02T06:06:54;98776.75;;;-0.57
76541;BMP280;65385;55.772;37.658;2023-02-02T06:07:54;98775.56;;;-0.55
76541;BMP280;65385;55.772;37.658;2023-02-02T06:08:55;98779.31;;;-0.57
76541;BMP280;65385;55.772;37.658;2023-02-02T06:09:55;98777.53;;;-0.57
76541;BMP280;65385;55.772;37.658;2023-02-02T06:10:56;98774.19;;;-0.57
76541;BMP280;65385;55.772;37.658;2023-02-02T06:11:56;98781.69;;;-0.56
76541;BMP280;65385;55.772;37.658;2023-02-02T06:12:57;98781.88;;;-0.57